Time;durP1;ratioP1;P1;durP2;ratioP2;P2;SDS_P1;SDS_P2;PMS_P1;PMS_P2;Temp;Humidity;BMP_temperature;BMP_pressure;BME280_temperature;BME280_humidity;BME280_pressure;Samples;Min_cycle;Max_cycle;Signal;HPM_P1;HPM_P2
2022/05/28 00:01:06;;;;;;;9.63;2.45;;;;;;;;;;5100065;28;20047;-56
2022/05/28 00:03:33;;;;;;;9.90;2.38;;;;;;;;;;5097514;28;20655;-58
2022/05/28 00:05:59;;;;;;;8.35;2.50;;;;;;;;;;5088408;28;20101;-58
2022/05/28 00:08:25;;;;;;;10.25;2.33;;;;;;;;;;5094843;28;20476;-58
2022/05/28 00:10:53;;;;;;;9.55;2.72;;;;;;;;;;5093460;28;20020;-57
2022/05/28 00:13:19;;;;;;;8.90;2.60;;;;;;;;;;5093592;28;20012;-57
2022/05/28 00:15:45;;;;;;;11.00;2.72;;;;;;;;;;5096981;28;20391;-55
2022/05/28 00:18:11;;;;;;;8.65;2.28;;;;;;;;;;5092052;28;20051;-55
2022/05/28 00:20:37;;;;;;;10.18;2.60;;;;;;;;;;5097222;28;20023;-58
2022/05/28 00:23:04;;;;;;;7.85;2.35;;;;;;;;;;5098582;28;20039;-58
2022/05/28 00:25:30;;;;;;;13.75;2.88;;;;;;;;;;5095059;28;20055;-57
2022/05/28 00:27:56;;;;;;;10.52;2.47;;;;;;;;;;5089401;28;20039;-57
2022/05/28 00:30:22;;;;;;;9.43;2.65;;;;;;;;;;5096279;28;20020;-57
2022/05/28 00:32:48;;;;;;;11.55;2.65;;;;;;;;;;5089693;28;20069;-57
2022/05/28 00:35:15;;;;;;;12.45;2.50;;;;;;;;;;5086853;28;20493;-58
2022/05/28 00:37:42;;;;;;;18.45;3.03;;;;;;;;;;5091426;28;20248;-58
2022/05/28 00:40:11;;;;;;;13.82;3.15;;;;;;;;;;5089570;28;20027;-57
2022/05/28 00:42:37;;;;;;;12.73;2.50;;;;;;;;;;5087817;28;20028;-57
2022/05/28 00:45:03;;;;;;;5.30;2.08;;;;;;;;;;5095762;28;20036;-57
2022/05/28 00:47:30;;;;;;;12.38;2.60;;;;;;;;;;5090937;28;20039;-58
2022/05/28 00:49:56;;;;;;;9.20;2.60;;;;;;;;;;5089868;28;20038;-57
2022/05/28 00:52:24;;;;;;;10.43;2.50;;;;;;;;;;5091452;28;20099;-58
2022/05/28 00:54:50;;;;;;;13.50;2.67;;;;;;;;;;5094372;28;20106;-56
2022/05/28 00:57:17;;;;;;;10.90;2.60;;;;;;;;;;5094708;28;20533;-58
2022/05/28 00:59:44;;;;;;;11.45;2.72;;;;;;;;;;5089387;28;20066;-58
2022/05/28 01:02:23;;;;;;;10.00;2.55;;;;;;;;;;5096519;28;20027;-58
2022/05/28 01:04:58;;;;;;;8.32;2.10;;;;;;;;;;5092715;28;20902;-56
2022/05/28 01:07:27;;;;;;;13.65;2.70;;;;;;;;;;5092174;28;20072;-57
2022/05/28 01:10:03;;;;;;;11.32;2.80;;;;;;;;;;5090943;28;20197;-58
2022/05/28 01:12:35;;;;;;;13.98;2.90;;;;;;;;;;5088655;28;20016;-58
2022/05/28 01:15:09;;;;;;;12.77;2.53;;;;;;;;;;5087531;28;20027;-57
2022/05/28 01:17:46;;;;;;;11.85;2.67;;;;;;;;;;5093513;28;20027;-58
2022/05/28 01:20:27;;;;;;;9.25;2.38;;;;;;;;;;5090090;28;20034;-58
2022/05/28 01:22:56;;;;;;;9.07;2.60;;;;;;;;;;5094853;28;20542;-56
2022/05/28 01:25:26;;;;;;;12.82;2.50;;;;;;;;;;5086771;28;20315;-58
2022/05/28 01:27:59;;;;;;;11.88;3.15;;;;;;;;;;5093095;28;20044;-56
2022/05/28 01:30:24;;;;;;;11.40;2.43;;;;;;;;;;5090656;28;20231;-57
2022/05/28 01:32:52;;;;;;;11.77;2.85;;;;;;;;;;5094454;28;20523;-56
2022/05/28 01:35:19;;;;;;;11.43;2.70;;;;;;;;;;5095977;28;20161;-58
2022/05/28 01:37:45;;;;;;;9.57;2.70;;;;;;;;;;5096016;28;20039;-56
2022/05/28 01:40:13;;;;;;;12.60;2.80;;;;;;;;;;5097084;28;20103;-58
2022/05/28 01:42:42;;;;;;;12.05;2.67;;;;;;;;;;5088659;28;20028;-56
2022/05/28 01:45:09;;;;;;;10.32;2.80;;;;;;;;;;5096170;28;20023;-58
2022/05/28 01:47:35;;;;;;;11.18;2.85;;;;;;;;;;5095393;28;20027;-58
2022/05/28 01:50:03;;;;;;;12.25;3.17;;;;;;;;;;5090148;28;20024;-56
2022/05/28 01:52:31;;;;;;;12.50;3.05;;;;;;;;;;5084471;28;20051;-57
2022/05/28 01:54:58;;;;;;;12.05;3.13;;;;;;;;;;5094015;28;20032;-58
2022/05/28 01:57:24;;;;;;;11.65;2.47;;;;;;;;;;5092045;28;20099;-58
2022/05/28 01:59:50;;;;;;;12.38;3.42;;;;;;;;;;5091609;28;20032;-56
2022/05/28 02:02:16;;;;;;;9.38;2.60;;;;;;;;;;5092998;28;20103;-57
2022/05/28 02:04:43;;;;;;;12.13;3.35;;;;;;;;;;5083113;28;20029;-55
2022/05/28 02:07:10;;;;;;;12.95;3.15;;;;;;;;;;5092640;28;20027;-56
2022/05/28 02:09:38;;;;;;;15.23;2.95;;;;;;;;;;5093245;28;20050;-58
2022/05/28 02:12:10;;;;;;;14.02;2.78;;;;;;;;;;5097780;28;20057;-58
2022/05/28 02:14:46;;;;;;;9.10;2.90;;;;;;;;;;5085982;28;20037;-58
2022/05/28 02:17:17;;;;;;;15.68;3.03;;;;;;;;;;5088048;28;20036;-58
2022/05/28 02:19:49;;;;;;;13.38;2.65;;;;;;;;;;5089245;28;20035;-57
2022/05/28 02:22:34;;;;;;;11.00;2.75;;;;;;;;;;5094198;28;20133;-58
2022/05/28 02:25:05;;;;;;;13.60;3.15;;;;;;;;;;5092188;28;20027;-58
2022/05/28 02:27:31;;;;;;;11.93;3.08;;;;;;;;;;5102567;28;20615;-58
2022/05/28 02:29:59;;;;;;;18.25;3.70;;;;;;;;;;5097922;27;20039;-57
2022/05/28 02:32:25;;;;;;;14.20;3.72;;;;;;;;;;5091394;28;20359;-55
2022/05/28 02:34:52;;;;;;;15.70;2.90;;;;;;;;;;5102088;28;20024;-56
2022/05/28 02:37:21;;;;;;;13.55;3.10;;;;;;;;;;5088653;28;20016;-58
2022/05/28 02:39:47;;;;;;;11.70;3.08;;;;;;;;;;5098905;28;20027;-53
2022/05/28 02:42:13;;;;;;;10.55;3.30;;;;;;;;;;5100752;28;20034;-57
2022/05/28 02:44:39;;;;;;;13.38;3.30;;;;;;;;;;5093123;28;20506;-57
2022/05/28 02:47:05;;;;;;;16.23;3.60;;;;;;;;;;5095055;28;20107;-57
2022/05/28 02:49:32;;;;;;;8.15;2.97;;;;;;;;;;5092002;28;20026;-57
2022/05/28 02:52:00;;;;;;;13.15;3.25;;;;;;;;;;5089596;28;20027;-56
2022/05/28 02:54:26;;;;;;;9.05;3.10;;;;;;;;;;5094851;28;20023;-57
2022/05/28 02:56:52;;;;;;;15.57;3.67;;;;;;;;;;5093925;28;20089;-58
2022/05/28 02:59:18;;;;;;;16.02;3.03;;;;;;;;;;5099165;28;20054;-58
2022/05/28 03:01:44;;;;;;;12.07;2.90;;;;;;;;;;5100937;27;20036;-58
2022/05/28 03:04:10;;;;;;;15.23;3.15;;;;;;;;;;5101478;28;20031;-58
2022/05/28 03:06:36;;;;;;;13.77;3.65;;;;;;;;;;5087611;28;20088;-58
2022/05/28 03:09:03;;;;;;;14.95;3.58;;;;;;;;;;5099219;28;20032;-58
2022/05/28 03:11:29;;;;;;;12.82;3.17;;;;;;;;;;5083645;28;20020;-57
2022/05/28 03:13:55;;;;;;;11.88;2.83;;;;;;;;;;5090621;28;20035;-58
2022/05/28 03:16:21;;;;;;;13.65;3.17;;;;;;;;;;5090362;28;20051;-57
2022/05/28 03:18:47;;;;;;;12.23;3.42;;;;;;;;;;5103078;28;20035;-57
2022/05/28 03:21:13;;;;;;;10.73;2.95;;;;;;;;;;5088334;28;20031;-57
2022/05/28 03:23:39;;;;;;;15.45;3.50;;;;;;;;;;5097900;28;20019;-56
2022/05/28 03:26:14;;;;;;;11.88;3.40;;;;;;;;;;5094874;28;20041;-58
2022/05/28 03:28:40;;;;;;;10.25;3.28;;;;;;;;;;5087014;28;20037;-56
2022/05/28 03:31:06;;;;;;;12.68;3.90;;;;;;;;;;5099979;28;20062;-56
2022/05/28 03:33:33;;;;;;;13.40;3.40;;;;;;;;;;5096379;28;20031;-57
2022/05/28 03:35:59;;;;;;;10.88;3.35;;;;;;;;;;5093604;28;20023;-56
2022/05/28 03:38:25;;;;;;;13.35;3.67;;;;;;;;;;5092112;28;20421;-58
2022/05/28 03:40:50;;;;;;;9.82;3.38;;;;;;;;;;5090145;28;20032;-57
2022/05/28 03:43:16;;;;;;;10.85;3.60;;;;;;;;;;5084244;28;20086;-57
2022/05/28 03:45:42;;;;;;;9.98;2.83;;;;;;;;;;5099716;28;20036;-58
2022/05/28 03:48:10;;;;;;;12.95;3.70;;;;;;;;;;5089977;28;20023;-57
2022/05/28 03:50:37;;;;;;;13.60;3.30;;;;;;;;;;5096063;28;20035;-57
2022/05/28 03:53:03;;;;;;;12.77;3.33;;;;;;;;;;5099438;28;20020;-58
2022/05/28 03:55:29;;;;;;;9.27;3.75;;;;;;;;;;5090434;28;20027;-57
2022/05/28 03:57:55;;;;;;;12.45;3.58;;;;;;;;;;5087369;28;20023;-58
2022/05/28 04:00:21;;;;;;;12.18;3.28;;;;;;;;;;5098164;28;20448;-56
2022/05/28 04:02:47;;;;;;;11.10;3.53;;;;;;;;;;5093320;28;20028;-57
2022/05/28 04:05:13;;;;;;;13.95;3.42;;;;;;;;;;5094749;28;20499;-57
2022/05/28 04:07:39;;;;;;;23.08;3.80;;;;;;;;;;5093623;28;20526;-57
2022/05/28 04:10:06;;;;;;;12.18;3.60;;;;;;;;;;5087538;28;20026;-58
2022/05/28 04:12:32;;;;;;;11.38;3.50;;;;;;;;;;5093472;28;20032;-57
2022/05/28 04:14:58;;;;;;;17.40;3.67;;;;;;;;;;5091485;28;20523;-57
2022/05/28 04:17:24;;;;;;;20.08;4.53;;;;;;;;;;5080011;28;20070;-57
2022/05/28 04:19:50;;;;;;;11.35;3.75;;;;;;;;;;5082273;28;20024;-56
2022/05/28 04:22:16;;;;;;;15.77;4.07;;;;;;;;;;5098264;28;20095;-57
2022/05/28 04:24:42;;;;;;;11.55;3.88;;;;;;;;;;5094514;28;20455;-56
2022/05/28 04:27:08;;;;;;;14.27;4.28;;;;;;;;;;5091920;28;20028;-57
2022/05/28 04:29:34;;;;;;;15.13;3.70;;;;;;;;;;5089847;28;20012;-58
2022/05/28 04:32:00;;;;;;;18.23;3.55;;;;;;;;;;5095223;28;20103;-57
2022/05/28 04:34:26;;;;;;;17.75;4.00;;;;;;;;;;5092604;28;20111;-56
2022/05/28 04:36:52;;;;;;;16.95;4.00;;;;;;;;;;5089096;28;20042;-57
2022/05/28 04:39:18;;;;;;;16.98;4.00;;;;;;;;;;5097869;28;20035;-57
2022/05/28 04:41:44;;;;;;;16.65;4.47;;;;;;;;;;5092080;28;20073;-58
2022/05/28 04:44:10;;;;;;;13.23;4.13;;;;;;;;;;5089071;28;20020;-57
2022/05/28 04:46:36;;;;;;;21.83;4.15;;;;;;;;;;5094494;28;20508;-58
2022/05/28 04:49:02;;;;;;;16.85;4.30;;;;;;;;;;5077902;28;20363;-58
2022/05/28 04:51:28;;;;;;;14.65;4.38;;;;;;;;;;5093025;28;20016;-57
2022/05/28 04:53:54;;;;;;;11.55;4.07;;;;;;;;;;5087341;28;20027;-57
2022/05/28 04:56:20;;;;;;;18.95;4.78;;;;;;;;;;5091380;28;20555;-56
2022/05/28 04:58:46;;;;;;;17.02;4.45;;;;;;;;;;5089772;28;20062;-57
2022/05/28 05:01:15;;;;;;;13.55;4.15;;;;;;;;;;5090989;28;20034;-57
2022/05/28 05:03:41;;;;;;;21.15;4.25;;;;;;;;;;5093379;28;20023;-58
2022/05/28 05:06:07;;;;;;;17.17;4.20;;;;;;;;;;5088099;28;20024;-58
2022/05/28 05:08:33;;;;;;;16.00;4.78;;;;;;;;;;5089374;28;20035;-57
2022/05/28 05:10:59;;;;;;;16.08;3.88;;;;;;;;;;5088598;28;20093;-56
2022/05/28 05:13:25;;;;;;;17.05;4.28;;;;;;;;;;5091775;28;20479;-57
2022/05/28 05:15:51;;;;;;;16.83;4.30;;;;;;;;;;5086402;28;20418;-57
2022/05/28 05:18:17;;;;;;;18.50;4.55;;;;;;;;;;5090165;28;20073;-58
2022/05/28 05:20:43;;;;;;;17.95;4.93;;;;;;;;;;5090910;28;20486;-55
2022/05/28 05:23:09;;;;;;;10.85;3.97;;;;;;;;;;5096411;28;20017;-57
2022/05/28 05:25:35;;;;;;;17.23;4.65;;;;;;;;;;5093791;28;20501;-57
2022/05/28 05:28:01;;;;;;;18.35;4.20;;;;;;;;;;5092326;28;20032;-56
2022/05/28 05:30:28;;;;;;;14.55;3.83;;;;;;;;;;5083449;28;20030;-57
2022/05/28 05:32:55;;;;;;;14.43;4.03;;;;;;;;;;5091480;28;20103;-56
2022/05/28 05:35:21;;;;;;;13.65;3.80;;;;;;;;;;5086433;28;20562;-58
2022/05/28 05:37:47;;;;;;;16.83;4.30;;;;;;;;;;5099159;28;20106;-57
2022/05/28 05:40:13;;;;;;;15.43;3.88;;;;;;;;;;5087120;28;20442;-57
2022/05/28 05:42:39;;;;;;;14.50;4.40;;;;;;;;;;5087863;28;20028;-56
2022/05/28 05:45:05;;;;;;;11.95;3.67;;;;;;;;;;5092721;28;20087;-56
2022/05/28 05:47:32;;;;;;;16.63;3.80;;;;;;;;;;5094859;28;20019;-59
2022/05/28 05:49:58;;;;;;;14.73;3.75;;;;;;;;;;5083268;28;20020;-58
2022/05/28 05:52:24;;;;;;;10.80;3.10;;;;;;;;;;5098213;28;20031;-58
2022/05/28 05:54:49;;;;;;;17.30;3.92;;;;;;;;;;5085903;28;20055;-59
2022/05/28 05:57:15;;;;;;;16.08;3.30;;;;;;;;;;5085022;28;20032;-59
2022/05/28 05:59:41;;;;;;;16.45;3.45;;;;;;;;;;5087154;28;20051;-59
2022/05/28 06:02:08;;;;;;;9.85;3.05;;;;;;;;;;5095015;28;20035;-58
2022/05/28 06:04:34;;;;;;;15.18;3.08;;;;;;;;;;5095261;28;20031;-57
2022/05/28 06:07:00;;;;;;;14.85;2.92;;;;;;;;;;5098225;27;20588;-59
2022/05/28 06:09:26;;;;;;;10.05;2.75;;;;;;;;;;5096620;28;20073;-58
2022/05/28 06:11:52;;;;;;;11.07;3.00;;;;;;;;;;5099284;27;20016;-59
2022/05/28 06:14:18;;;;;;;11.23;2.55;;;;;;;;;;5094999;28;20020;-60
2022/05/28 06:16:44;;;;;;;14.27;3.10;;;;;;;;;;5084107;28;20042;-59
2022/05/28 06:19:10;;;;;;;8.55;2.50;;;;;;;;;;5099985;28;20099;-61
2022/05/28 06:21:36;;;;;;;13.27;2.33;;;;;;;;;;5095975;28;20028;-60
2022/05/28 06:24:03;;;;;;;11.50;2.28;;;;;;;;;;5096801;28;20118;-60
2022/05/28 06:26:29;;;;;;;8.63;1.92;;;;;;;;;;5096881;28;20092;-60
2022/05/28 06:28:55;;;;;;;10.85;2.38;;;;;;;;;;5095182;28;20099;-60
2022/05/28 06:31:21;;;;;;;9.15;1.80;;;;;;;;;;5094208;28;20046;-60
2022/05/28 06:33:47;;;;;;;10.07;1.95;;;;;;;;;;5100692;28;20527;-57
2022/05/28 06:36:13;;;;;;;12.68;2.00;;;;;;;;;;5087050;28;20165;-59
2022/05/28 06:38:40;;;;;;;7.65;1.80;;;;;;;;;;5087442;28;20020;-60
2022/05/28 06:41:07;;;;;;;8.57;1.48;;;;;;;;;;5091089;28;20522;-60
2022/05/28 06:43:34;;;;;;;7.90;1.75;;;;;;;;;;5086467;28;20532;-60
2022/05/28 06:46:01;;;;;;;8.75;2.05;;;;;;;;;;5092283;28;20024;-58
2022/05/28 06:48:27;;;;;;;9.90;1.60;;;;;;;;;;5098940;28;20020;-60
2022/05/28 06:51:02;;;;;;;12.07;1.98;;;;;;;;;;5092641;28;20511;-58
2022/05/28 06:53:29;;;;;;;9.68;1.60;;;;;;;;;;5101629;28;20639;-60
2022/05/28 06:55:54;;;;;;;6.72;1.63;;;;;;;;;;5099803;28;20027;-59
2022/05/28 06:58:20;;;;;;;11.63;1.50;;;;;;;;;;5092802;28;20374;-60
2022/05/28 07:00:46;;;;;;;5.35;1.38;;;;;;;;;;5097935;28;20023;-57
2022/05/28 07:03:14;;;;;;;6.93;1.40;;;;;;;;;;5082279;28;20032;-59
2022/05/28 07:05:40;;;;;;;7.65;1.48;;;;;;;;;;5088453;28;20023;-59
2022/05/28 07:08:06;;;;;;;7.45;1.50;;;;;;;;;;5088281;28;20446;-60
2022/05/28 07:10:32;;;;;;;6.05;1.55;;;;;;;;;;5095570;28;20082;-61
2022/05/28 07:12:58;;;;;;;6.13;1.10;;;;;;;;;;5089774;28;20387;-60
2022/05/28 07:15:24;;;;;;;5.95;1.50;;;;;;;;;;5095196;28;20101;-59
2022/05/28 07:17:50;;;;;;;7.75;1.50;;;;;;;;;;5092083;28;20024;-59
2022/05/28 07:20:16;;;;;;;7.72;1.50;;;;;;;;;;5092608;28;20172;-59
2022/05/28 07:22:42;;;;;;;8.02;1.10;;;;;;;;;;5093393;28;20418;-59
2022/05/28 07:25:09;;;;;;;8.10;1.35;;;;;;;;;;5093510;27;20039;-59
2022/05/28 07:27:35;;;;;;;8.65;1.55;;;;;;;;;;5093113;27;20417;-58
2022/05/28 07:30:01;;;;;;;6.97;1.38;;;;;;;;;;5099408;28;20020;-60
2022/05/28 07:32:30;;;;;;;7.82;1.30;;;;;;;;;;5088573;28;20027;-60
2022/05/28 07:34:57;;;;;;;7.45;1.08;;;;;;;;;;5096277;27;20394;-59
2022/05/28 07:37:23;;;;;;;6.22;1.30;;;;;;;;;;5095842;27;20217;-61
2022/05/28 07:39:49;;;;;;;6.07;1.38;;;;;;;;;;5097225;28;20036;-59
2022/05/28 07:42:15;;;;;;;6.47;1.20;;;;;;;;;;5099138;27;20023;-60
2022/05/28 07:44:41;;;;;;;6.13;1.00;;;;;;;;;;5099352;28;20028;-59
2022/05/28 07:47:07;;;;;;;7.72;1.55;;;;;;;;;;5091678;28;20168;-60
2022/05/28 07:49:35;;;;;;;7.22;1.45;;;;;;;;;;5092996;28;20024;-60
2022/05/28 07:52:01;;;;;;;11.70;1.50;;;;;;;;;;5097319;28;20414;-61
2022/05/28 07:54:27;;;;;;;9.70;1.50;;;;;;;;;;5095169;28;20023;-61
2022/05/28 07:56:53;;;;;;;5.05;0.98;;;;;;;;;;5097998;28;20516;-60
2022/05/28 07:59:19;;;;;;;8.00;1.20;;;;;;;;;;5095171;28;20024;-60
2022/05/28 08:01:45;;;;;;;6.40;1.00;;;;;;;;;;5094004;28;20382;-62
2022/05/28 08:04:12;;;;;;;3.95;1.10;;;;;;;;;;5094929;28;20024;-60
2022/05/28 08:06:38;;;;;;;6.55;1.23;;;;;;;;;;5088233;28;20198;-61
2022/05/28 08:09:05;;;;;;;5.50;1.40;;;;;;;;;;5089605;28;20020;-60
2022/05/28 08:11:31;;;;;;;6.45;1.23;;;;;;;;;;5093263;28;20423;-61
2022/05/28 08:13:57;;;;;;;5.40;1.15;;;;;;;;;;5098906;28;20386;-60
2022/05/28 08:16:23;;;;;;;6.65;1.58;;;;;;;;;;5099534;28;20028;-60
2022/05/28 08:18:49;;;;;;;6.43;1.10;;;;;;;;;;5084783;28;20104;-60
2022/05/28 08:24:00;;;;;;;5.05;1.25;;;;;;;;;;5090682;28;20089;-60
2022/05/28 08:26:26;;;;;;;5.95;1.33;;;;;;;;;;5094852;28;20409;-59
2022/05/28 08:28:52;;;;;;;5.93;1.25;;;;;;;;;;5091329;28;20111;-60
2022/05/28 08:31:19;;;;;;;8.43;1.90;;;;;;;;;;5091556;28;20032;-61
2022/05/28 08:33:45;;;;;;;6.72;1.23;;;;;;;;;;5095849;28;20034;-61
2022/05/28 08:36:11;;;;;;;8.13;1.33;;;;;;;;;;5080425;28;20092;-60
2022/05/28 08:38:37;;;;;;;6.35;1.17;;;;;;;;;;5101100;28;20023;-60
2022/05/28 08:41:19;;;;;;;10.23;1.40;;;;;;;;;;5093059;28;20035;-59
2022/05/28 08:43:48;;;;;;;5.30;1.15;;;;;;;;;;5094424;28;20419;-59
2022/05/28 08:46:15;;;;;;;5.18;1.10;;;;;;;;;;5088096;28;20030;-60
2022/05/28 08:48:46;;;;;;;6.07;1.05;;;;;;;;;;5089013;28;20032;-60
2022/05/28 08:51:39;;;;;;;4.68;1.20;;;;;;;;;;5093046;28;20020;-60
2022/05/28 08:54:14;;;;;;;5.05;0.90;;;;;;;;;;5075440;28;20487;-60
2022/05/28 08:56:41;;;;;;;6.85;1.38;;;;;;;;;;5083922;28;20484;-61
2022/05/28 08:59:13;;;;;;;5.75;1.10;;;;;;;;;;5089287;28;20033;-60
2022/05/28 09:01:40;;;;;;;8.77;1.20;;;;;;;;;;5095048;28;20563;-61
2022/05/28 09:04:18;;;;;;;6.03;1.08;;;;;;;;;;5080339;28;20032;-61
2022/05/28 09:06:47;;;;;;;3.25;1.08;;;;;;;;;;5090598;28;20586;-61
2022/05/28 09:09:15;;;;;;;7.85;1.27;;;;;;;;;;5089120;28;20069;-61
2022/05/28 09:11:44;;;;;;;6.53;0.93;;;;;;;;;;5087343;28;20023;-60
2022/05/28 09:14:10;;;;;;;6.20;1.10;;;;;;;;;;5084075;28;20405;-61
2022/05/28 09:16:37;;;;;;;3.38;1.10;;;;;;;;;;5088953;28;20024;-60
2022/05/28 09:19:09;;;;;;;6.88;1.20;;;;;;;;;;5096070;28;20756;-61
2022/05/28 09:21:36;;;;;;;4.03;1.17;;;;;;;;;;5090073;28;20090;-61
2022/05/28 09:24:04;;;;;;;6.30;1.25;;;;;;;;;;5087151;28;20669;-62
2022/05/28 09:26:32;;;;;;;3.38;1.08;;;;;;;;;;5088833;28;20024;-60
2022/05/28 09:29:03;;;;;;;5.97;1.40;;;;;;;;;;5084317;28;20023;-60
2022/05/28 09:31:29;;;;;;;6.32;1.17;;;;;;;;;;5093584;28;20024;-62
2022/05/28 09:34:02;;;;;;;8.88;1.52;;;;;;;;;;5093278;28;20382;-59
2022/05/28 09:36:37;;;;;;;4.80;1.23;;;;;;;;;;5083938;28;20610;-60
2022/05/28 09:39:18;;;;;;;9.20;1.27;;;;;;;;;;5088948;28;20028;-59
2022/05/28 09:41:47;;;;;;;6.45;1.23;;;;;;;;;;5093139;28;20058;-61
2022/05/28 09:44:32;;;;;;;5.50;1.02;;;;;;;;;;5091732;28;20502;-59
2022/05/28 09:47:08;;;;;;;5.32;1.10;;;;;;;;;;5091817;28;20411;-59
2022/05/28 09:49:34;;;;;;;8.82;1.40;;;;;;;;;;5091920;28;20728;-59
2022/05/28 09:52:10;;;;;;;4.18;1.10;;;;;;;;;;5092150;28;20106;-61
2022/05/28 09:54:37;;;;;;;8.38;1.58;;;;;;;;;;5092706;28;20028;-59
2022/05/28 09:57:09;;;;;;;7.68;1.48;;;;;;;;;;5091170;28;20453;-60
2022/05/28 09:59:46;;;;;;;3.63;0.85;;;;;;;;;;5092381;28;20114;-60
2022/05/28 10:02:16;;;;;;;7.47;1.27;;;;;;;;;;5091082;28;20081;-60
2022/05/28 10:04:48;;;;;;;5.18;1.20;;;;;;;;;;5096235;28;20494;-60
2022/05/28 10:07:14;;;;;;;6.28;1.40;;;;;;;;;;5093469;28;20030;-61
2022/05/28 10:09:50;;;;;;;16.67;1.80;;;;;;;;;;5096881;28;20615;-60
2022/05/28 10:12:31;;;;;;;7.30;1.75;;;;;;;;;;5086630;28;20487;-61
2022/05/28 10:15:05;;;;;;;5.25;1.25;;;;;;;;;;5095142;28;20552;-60
2022/05/28 10:17:32;;;;;;;5.53;1.40;;;;;;;;;;5087503;28;20020;-61
2022/05/28 10:19:59;;;;;;;6.43;1.40;;;;;;;;;;5085242;28;20112;-61
2022/05/28 10:22:27;;;;;;;7.43;1.40;;;;;;;;;;5095793;28;20019;-58
2022/05/28 10:24:57;;;;;;;7.82;1.15;;;;;;;;;;5090308;28;20039;-59
2022/05/28 10:27:23;;;;;;;6.40;1.60;;;;;;;;;;5087153;28;20128;-59
2022/05/28 10:29:50;;;;;;;7.95;1.60;;;;;;;;;;5093864;28;20492;-59
2022/05/28 10:32:18;;;;;;;6.22;1.40;;;;;;;;;;5095857;28;20159;-61
2022/05/28 10:34:44;;;;;;;4.97;1.35;;;;;;;;;;5086157;28;20399;-57
2022/05/28 10:37:12;;;;;;;6.07;1.45;;;;;;;;;;5086492;28;20025;-59
2022/05/28 10:39:39;;;;;;;5.25;1.50;;;;;;;;;;5091131;28;20468;-60
2022/05/28 10:42:06;;;;;;;7.40;1.35;;;;;;;;;;5092495;28;20023;-61
2022/05/28 10:44:33;;;;;;;5.28;1.48;;;;;;;;;;5084231;28;20044;-61
2022/05/28 10:47:17;;;;;;;7.97;1.63;;;;;;;;;;5095951;28;20020;-61
2022/05/28 10:49:52;;;;;;;7.28;1.40;;;;;;;;;;5093430;28;20023;-59
2022/05/28 10:52:29;;;;;;;6.47;1.45;;;;;;;;;;5095937;28;20375;-61
2022/05/28 10:55:03;;;;;;;7.60;1.45;;;;;;;;;;5089100;28;20024;-59
2022/05/28 10:57:29;;;;;;;10.30;1.35;;;;;;;;;;5098247;28;20725;-60
2022/05/28 11:00:16;;;;;;;8.77;1.40;;;;;;;;;;5101426;28;20035;-58
2022/05/28 11:03:00;;;;;;;9.10;1.63;;;;;;;;;;5091828;28;20492;-61
2022/05/28 11:05:26;;;;;;;8.65;1.08;;;;;;;;;;5090730;28;20066;-58
2022/05/28 11:08:05;;;;;;;5.80;1.30;;;;;;;;;;5089550;28;20028;-59
2022/05/28 11:10:37;;;;;;;7.60;1.58;;;;;;;;;;5098970;28;20028;-62
2022/05/28 11:13:02;;;;;;;6.47;1.73;;;;;;;;;;5093659;28;20386;-61
2022/05/28 11:15:28;;;;;;;6.53;1.73;;;;;;;;;;5091389;28;20028;-61
2022/05/28 11:18:03;;;;;;;6.47;1.48;;;;;;;;;;5095443;28;20032;-61
2022/05/28 11:20:32;;;;;;;6.63;1.48;;;;;;;;;;5081443;28;20024;-60
2022/05/28 11:22:58;;;;;;;8.80;1.77;;;;;;;;;;5089604;28;20051;-59
2022/05/28 11:25:38;;;;;;;6.65;1.52;;;;;;;;;;5087849;28;20060;-61
2022/05/28 11:28:27;;;;;;;7.43;1.40;;;;;;;;;;5095876;28;20542;-61
2022/05/28 11:30:56;;;;;;;11.43;1.40;;;;;;;;;;5074630;28;20070;-59
2022/05/28 11:33:28;;;;;;;7.38;1.50;;;;;;;;;;5090854;28;20376;-61
2022/05/28 11:35:56;;;;;;;4.78;1.30;;;;;;;;;;5093353;28;20035;-61
2022/05/28 11:38:41;;;;;;;5.28;1.20;;;;;;;;;;5096648;28;20016;-62
2022/05/28 11:41:19;;;;;;;9.15;1.40;;;;;;;;;;5094204;28;20036;-59
2022/05/28 11:43:49;;;;;;;6.88;1.60;;;;;;;;;;5089957;28;20467;-59
2022/05/28 11:46:35;;;;;;;8.43;1.58;;;;;;;;;;5093574;28;20035;-60
2022/05/28 11:51:55;;;;;;;6.43;1.15;;;;;;;;;;5089120;28;20026;-61
2022/05/28 11:54:27;;;;;;;8.18;1.50;;;;;;;;;;5093741;28;20039;-61
2022/05/28 11:56:55;;;;;;;4.90;1.05;;;;;;;;;;5099017;28;20506;-58
2022/05/28 11:59:23;;;;;;;13.43;1.83;;;;;;;;;;5088089;28;20527;-61
2022/05/28 12:02:00;;;;;;;5.55;1.55;;;;;;;;;;5089843;28;20047;-61
2022/05/28 12:04:27;;;;;;;2.95;1.00;;;;;;;;;;5088365;28;20479;-60
2022/05/28 12:07:04;;;;;;;3.72;1.30;;;;;;;;;;5093626;28;20031;-59
2022/05/28 12:09:32;;;;;;;8.63;1.60;;;;;;;;;;5093067;28;20510;-60
2022/05/28 12:12:13;;;;;;;5.93;1.67;;;;;;;;;;5089838;28;20024;-61
2022/05/28 12:14:41;;;;;;;5.38;1.33;;;;;;;;;;5094779;28;20028;-57
2022/05/28 12:17:11;;;;;;;7.22;1.58;;;;;;;;;;5088705;28;20114;-59
2022/05/28 12:19:48;;;;;;;4.47;1.35;;;;;;;;;;5099677;28;20050;-60
2022/05/28 12:22:32;;;;;;;7.20;1.88;;;;;;;;;;5096529;28;20395;-60
2022/05/28 12:25:03;;;;;;;9.18;1.38;;;;;;;;;;5096831;28;20032;-59
2022/05/28 12:27:36;;;;;;;7.18;1.58;;;;;;;;;;5095774;28;20559;-61
2022/05/28 12:30:02;;;;;;;6.25;1.50;;;;;;;;;;5090284;28;20566;-60
2022/05/28 12:32:28;;;;;;;9.48;1.70;;;;;;;;;;5089916;28;20099;-60
2022/05/28 12:34:58;;;;;;;7.20;1.70;;;;;;;;;;5091137;28;20103;-59
2022/05/28 12:37:27;;;;;;;8.57;1.60;;;;;;;;;;5084180;28;20468;-62
2022/05/28 12:40:00;;;;;;;7.82;1.55;;;;;;;;;;5087473;28;20119;-60
2022/05/28 12:42:30;;;;;;;9.27;1.42;;;;;;;;;;5084595;28;20032;-60
2022/05/28 12:44:56;;;;;;;8.55;1.90;;;;;;;;;;5091104;28;20042;-61
2022/05/28 12:47:26;;;;;;;8.82;2.00;;;;;;;;;;5092391;28;20024;-59
2022/05/28 12:49:56;;;;;;;11.52;1.95;;;;;;;;;;5083854;28;20098;-59
2022/05/28 12:52:28;;;;;;;8.38;1.80;;;;;;;;;;5094651;28;20110;-61
2022/05/28 12:55:13;;;;;;;5.47;1.25;;;;;;;;;;5083002;28;20028;-60
2022/05/28 12:57:39;;;;;;;8.18;1.70;;;;;;;;;;5098629;28;20081;-61
2022/05/28 13:00:24;;;;;;;7.55;1.60;;;;;;;;;;5091951;28;20038;-61
2022/05/28 13:02:51;;;;;;;9.93;1.85;;;;;;;;;;5089784;28;20111;-59
2022/05/28 13:05:24;;;;;;;9.75;1.80;;;;;;;;;;5090591;28;20024;-59
2022/05/28 13:07:52;;;;;;;6.05;1.42;;;;;;;;;;5087713;28;20020;-59
2022/05/28 13:10:26;;;;;;;9.65;1.83;;;;;;;;;;5096021;28;20031;-59
2022/05/28 13:12:55;;;;;;;10.75;1.80;;;;;;;;;;5095556;28;20032;-60
2022/05/28 13:15:21;;;;;;;8.15;1.50;;;;;;;;;;5079537;28;20027;-60
2022/05/28 13:17:56;;;;;;;7.22;1.50;;;;;;;;;;5085422;28;20316;-61
2022/05/28 13:20:29;;;;;;;7.13;1.85;;;;;;;;;;5092318;28;20417;-59
2022/05/28 13:23:14;;;;;;;5.40;1.63;;;;;;;;;;5094636;28;20027;-61
2022/05/28 13:26:00;;;;;;;5.70;1.77;;;;;;;;;;5086027;28;20028;-61
2022/05/28 13:28:45;;;;;;;6.15;1.70;;;;;;;;;;5083440;28;20713;-61
2022/05/28 13:31:13;;;;;;;7.20;1.63;;;;;;;;;;5096065;28;20035;-60
2022/05/28 13:33:40;;;;;;;6.38;1.60;;;;;;;;;;5097288;28;20485;-61
2022/05/28 13:36:07;;;;;;;6.88;1.50;;;;;;;;;;5093965;28;20540;-61
2022/05/28 13:38:41;;;;;;;8.68;1.83;;;;;;;;;;5094624;28;20272;-60
2022/05/28 13:41:09;;;;;;;7.95;2.10;;;;;;;;;;5094398;28;20036;-61
2022/05/28 13:43:37;;;;;;;9.75;1.67;;;;;;;;;;5095928;28;20347;-59
2022/05/28 13:46:04;;;;;;;8.52;1.95;;;;;;;;;;5095115;28;20122;-61
2022/05/28 13:48:30;;;;;;;9.25;1.70;;;;;;;;;;5091097;28;20539;-61
2022/05/28 13:51:00;;;;;;;8.85;1.90;;;;;;;;;;5093175;28;20062;-60
2022/05/28 13:53:28;;;;;;;7.80;1.60;;;;;;;;;;5096158;28;20099;-60
2022/05/28 13:56:02;;;;;;;10.98;1.95;;;;;;;;;;5085617;28;20032;-60
2022/05/28 13:58:32;;;;;;;7.28;1.60;;;;;;;;;;5077828;28;20084;-61
2022/05/28 14:01:02;;;;;;;9.95;1.73;;;;;;;;;;5095513;28;20047;-60
2022/05/28 14:03:32;;;;;;;7.90;1.58;;;;;;;;;;5088410;28;20034;-61
2022/05/28 14:05:59;;;;;;;8.95;1.77;;;;;;;;;;5094328;28;20024;-60
2022/05/28 14:08:32;;;;;;;7.43;1.58;;;;;;;;;;5097499;28;20144;-60
2022/05/28 14:11:17;;;;;;;5.53;1.42;;;;;;;;;;5087816;28;20024;-61
2022/05/28 14:13:48;;;;;;;9.82;1.83;;;;;;;;;;5087876;28;20086;-60
2022/05/28 14:16:21;;;;;;;8.60;1.77;;;;;;;;;;5098182;28;20017;-61
2022/05/28 14:18:47;;;;;;;5.18;1.40;;;;;;;;;;5090916;28;20051;-61
2022/05/28 14:21:13;;;;;;;8.13;1.42;;;;;;;;;;5086578;28;20024;-60
2022/05/28 14:23:43;;;;;;;7.93;1.80;;;;;;;;;;5087488;28;20100;-60
2022/05/28 14:26:16;;;;;;;6.80;1.70;;;;;;;;;;5096577;28;20027;-61
2022/05/28 14:28:43;;;;;;;7.88;1.83;;;;;;;;;;5092079;28;20059;-59
2022/05/28 14:31:12;;;;;;;7.18;1.80;;;;;;;;;;5096270;28;20518;-61
2022/05/28 14:33:39;;;;;;;5.53;1.38;;;;;;;;;;5094242;28;20020;-61
2022/05/28 14:36:07;;;;;;;6.60;1.55;;;;;;;;;;5084510;28;20035;-61
2022/05/28 14:38:33;;;;;;;7.72;1.83;;;;;;;;;;5088510;28;20118;-61
2022/05/28 14:41:01;;;;;;;7.28;1.55;;;;;;;;;;5096952;28;20440;-60
2022/05/28 14:43:31;;;;;;;7.13;1.60;;;;;;;;;;5089834;28;20807;-60
2022/05/28 14:46:06;;;;;;;6.50;1.40;;;;;;;;;;5092366;28;20036;-60
2022/05/28 14:48:32;;;;;;;5.72;1.40;;;;;;;;;;5092581;28;20020;-61
2022/05/28 14:51:03;;;;;;;5.35;1.33;;;;;;;;;;5095010;28;20046;-61
2022/05/28 14:53:35;;;;;;;5.13;1.52;;;;;;;;;;5098050;28;20020;-61